Time;durP1;ratioP1;P1;durP2;ratioP2;P2;SDS_P1;SDS_P2;PMS_P1;PMS_P2;Temp;Humidity;BMP_temperature;BMP_pressure;BME280_temperature;BME280_humidity;BME280_pressure;Samples;Min_cycle;Max_cycle;Signal;HPM_P1;HPM_P2
2021/12/13 00:02:24;;;;;;;31.50;19.63;;;12.10;87.90;;;;;;5031990;28;20197;-85
2021/12/13 00:04:59;;;;;;;29.05;18.45;;;12.10;87.60;;;;;;5030207;28;20230;-82
2021/12/13 00:07:29;;;;;;;34.13;19.08;;;12.00;87.20;;;;;;5055204;28;20173;-83
2021/12/13 00:09:57;;;;;;;37.42;19.55;;;11.70;87.40;;;;;;5037788;28;20218;-84
2021/12/13 00:12:28;;;;;;;32.08;17.77;;;11.80;87.90;;;;;;5050031;28;20182;-84
2021/12/13 00:14:57;;;;;;;30.48;18.92;;;12.00;88.00;;;;;;5042942;28;20206;-84
2021/12/13 00:17:27;;;;;;;27.35;18.75;;;11.90;88.20;;;;;;5032825;28;20217;-84
2021/12/13 00:20:05;;;;;;;28.98;19.17;;;11.70;88.00;;;;;;5039628;28;20170;-84
2021/12/13 00:22:38;;;;;;;31.73;18.52;;;11.80;88.10;;;;;;5039475;28;20173;-85
2021/12/13 00:25:17;;;;;;;29.98;19.63;;;11.70;88.30;;;;;;5037367;28;20696;-84
2021/12/13 00:27:55;;;;;;;28.65;17.30;;;11.80;88.40;;;;;;5029468;28;20653;-85
2021/12/13 00:30:26;;;;;;;35.30;19.23;;;11.90;88.70;;;;;;5005564;28;20228;-84
2021/12/13 00:33:18;;;;;;;31.92;18.50;;;12.00;88.50;;;;;;5037280;28;20181;-85
2021/12/13 00:36:17;;;;;;;27.90;17.95;;;12.00;88.00;;;;;;5033361;28;20194;-82
2021/12/13 00:38:54;;;;;;;33.28;18.15;;;12.10;87.70;;;;;;5030468;28;20186;-82
2021/12/13 00:41:27;;;;;;;24.02;17.52;;;12.20;87.50;;;;;;5032231;28;20194;-82
2021/12/13 00:44:02;;;;;;;28.02;18.15;;;12.10;87.10;;;;;;5021603;28;20205;-82
2021/12/13 00:46:29;;;;;;;28.85;19.25;;;12.20;87.00;;;;;;5025645;28;20182;-83
2021/12/13 00:48:59;;;;;;;25.35;17.80;;;12.10;87.00;;;;;;5041525;28;20229;-83
2021/12/13 00:51:29;;;;;;;30.05;19.23;;;12.00;86.90;;;;;;5024210;28;20181;-82
2021/12/13 00:54:03;;;;;;;31.23;20.75;;;12.00;86.90;;;;;;5032698;28;20234;-82
2021/12/13 00:56:56;;;;;;;34.10;19.25;;;12.00;86.90;;;;;;5038224;28;20619;-82
2021/12/13 00:59:29;;;;;;;35.53;20.13;;;11.50;86.80;;;;;;5036114;28;20213;-82
2021/12/13 01:02:10;;;;;;;28.98;18.45;;;11.40;87.70;;;;;;5035145;28;20181;-82
2021/12/13 01:05:01;;;;;;;38.58;21.35;;;11.40;88.30;;;;;;5034735;28;20297;-82
2021/12/13 01:07:33;;;;;;;32.40;18.80;;;11.40;88.60;;;;;;5027897;28;20273;-82
2021/12/13 01:10:23;;;;;;;26.33;18.40;;;11.40;88.90;;;;;;5036411;28;20198;-82
2021/12/13 01:12:51;;;;;;;34.55;20.55;;;11.70;89.00;;;;;;5028309;28;20190;-82
2021/12/13 01:15:33;;;;;;;36.33;21.85;;;11.80;88.60;;;;;;5040537;28;20205;-82
2021/12/13 01:18:33;;;;;;;34.67;21.48;;;11.90;88.20;;;;;;5039296;28;20173;-82
2021/12/13 01:21:29;;;;;;;35.50;20.40;;;11.90;87.80;;;;;;5031157;28;20214;-81
2021/12/13 01:24:07;;;;;;;39.22;21.70;;;11.70;87.40;;;;;;5031863;28;20206;-82
2021/12/13 01:26:47;;;;;;;34.03;20.30;;;11.80;87.40;;;;;;5024091;28;20189;-85
2021/12/13 01:29:22;;;;;;;40.05;21.48;;;11.80;87.50;;;;;;5022475;28;20210;-86
2021/12/13 01:31:54;;;;;;;35.95;21.77;;;11.90;87.40;;;;;;5041324;28;20167;-85
2021/12/13 01:34:23;;;;;;;40.35;21.13;;;11.90;87.40;;;;;;5033615;28;20574;-83
2021/12/13 01:37:03;;;;;;;40.10;22.27;;;12.00;87.10;;;;;;5016193;28;20178;-82
2021/12/13 01:39:31;;;;;;;36.72;20.70;;;12.00;86.70;;;;;;5026406;28;20178;-82
2021/12/13 01:42:01;;;;;;;35.05;21.75;;;12.10;86.70;;;;;;5029447;28;20183;-82
2021/12/13 01:44:33;;;;;;;37.03;21.85;;;12.10;86.50;;;;;;5027489;28;20205;-83
2021/12/13 01:47:08;;;;;;;41.28;20.65;;;12.00;86.50;;;;;;5025768;28;20178;-82
2021/12/13 01:49:48;;;;;;;37.72;22.50;;;12.10;86.50;;;;;;5022902;28;20200;-83
2021/12/13 01:52:21;;;;;;;43.00;24.58;;;12.10;86.20;;;;;;5023464;28;20174;-82
2021/12/13 01:54:47;;;;;;;39.50;22.60;;;12.00;86.20;;;;;;4998273;28;20213;-83
2021/12/13 01:59:56;;;;;;;46.08;21.83;;;12.10;86.10;;;;;;5034396;28;20641;-83
2021/12/13 02:02:33;;;;;;;39.22;23.80;;;12.10;85.90;;;;;;5026173;28;20179;-83
2021/12/13 02:05:15;;;;;;;41.22;23.05;;;12.10;85.70;;;;;;5025938;28;20209;-84
2021/12/13 02:08:01;;;;;;;46.15;23.63;;;12.00;85.60;;;;;;5025555;28;20170;-82
2021/12/13 02:10:40;;;;;;;42.33;22.58;;;12.00;85.80;;;;;;5025485;28;20290;-83
2021/12/13 02:13:20;;;;;;;42.22;23.23;;;12.10;85.80;;;;;;5030436;28;20173;-83
2021/12/13 02:18:37;;;;;;;44.80;23.35;;;12.00;85.50;;;;;;5019871;28;20184;-84
2021/12/13 02:21:24;;;;;;;47.42;23.05;;;11.80;85.60;;;;;;5018359;28;20190;-82
2021/12/13 02:23:54;;;;;;;39.63;21.73;;;11.70;85.90;;;;;;5021127;28;20552;-83
2021/12/13 02:26:20;;;;;;;38.67;22.75;;;11.60;86.10;;;;;;5019440;28;20214;-83
2021/12/13 02:28:53;;;;;;;39.97;22.05;;;11.70;86.40;;;;;;5018161;28;20181;-83
2021/12/13 02:31:27;;;;;;;45.72;24.08;;;11.70;86.40;;;;;;5020984;28;20175;-84
2021/12/13 02:34:00;;;;;;;40.05;23.00;;;11.80;86.60;;;;;;5032474;28;20198;-83
2021/12/13 02:36:34;;;;;;;43.38;24.00;;;11.80;86.40;;;;;;5040900;28;20181;-82
2021/12/13 02:39:16;;;;;;;38.95;22.15;;;11.90;86.50;;;;;;5043885;28;20181;-83
2021/12/13 02:41:43;;;;;;;41.22;24.90;;;12.00;86.50;;;;;;5042658;28;20190;-84
2021/12/13 02:44:15;;;;;;;41.47;22.45;;;11.90;86.00;;;;;;5039154;28;20218;-84
2021/12/13 02:46:42;;;;;;;44.45;21.50;;;11.80;86.00;;;;;;5031957;28;20193;-83
2021/12/13 02:49:11;;;;;;;42.47;21.98;;;11.70;86.40;;;;;;5035940;28;20203;-83
2021/12/13 02:52:03;;;;;;;41.13;23.00;;;11.70;86.70;;;;;;5030811;28;20189;-83
2021/12/13 02:54:37;;;;;;;42.83;21.95;;;11.80;87.00;;;;;;5030987;28;20209;-83
2021/12/13 02:57:17;;;;;;;42.85;23.08;;;12.00;86.20;;;;;;5032762;28;20179;-84
2021/12/13 02:59:53;;;;;;;46.30;22.30;;;11.90;85.70;;;;;;5033706;28;20205;-83
2021/12/13 03:02:30;;;;;;;45.08;22.35;;;11.80;85.50;;;;;;5035623;28;20205;-83
2021/12/13 03:04:58;;;;;;;44.22;23.85;;;11.80;85.50;;;;;;5032878;28;20206;-84
2021/12/13 03:07:32;;;;;;;39.83;21.25;;;11.90;85.50;;;;;;5041823;28;20185;-83
2021/12/13 03:10:01;;;;;;;42.95;21.70;;;11.90;85.40;;;;;;5041442;28;20650;-83
2021/12/13 03:12:28;;;;;;;41.47;22.05;;;11.90;85.40;;;;;;5039048;28;20186;-83
2021/12/13 03:14:58;;;;;;;37.83;22.52;;;12.00;85.30;;;;;;5030509;28;20201;-83
2021/12/13 03:17:37;;;;;;;44.50;22.13;;;12.00;85.40;;;;;;5033319;28;20193;-83
2021/12/13 03:20:33;;;;;;;40.95;20.02;;;12.00;85.40;;;;;;5034293;28;20193;-83
2021/12/13 03:23:37;;;;;;;36.33;19.60;;;12.00;85.40;;;;;;5040045;28;20190;-83
2021/12/13 03:26:41;;;;;;;39.55;20.33;;;12.10;85.10;;;;;;5014457;28;20212;-82
2021/12/13 03:29:06;;;;;;;40.70;21.33;;;12.20;84.80;;;;;;5002812;28;20205;-82
2021/12/13 03:31:39;;;;;;;46.23;20.50;;;12.10;84.60;;;;;;5025492;28;20210;-82
2021/12/13 03:34:13;;;;;;;43.80;21.10;;;12.10;84.60;;;;;;5026002;28;20202;-83
2021/12/13 03:36:58;;;;;;;37.67;19.27;;;12.00;84.80;;;;;;5032114;28;20185;-83
2021/12/13 03:39:35;;;;;;;39.60;20.52;;;12.10;84.80;;;;;;5029625;28;20196;-83
2021/12/13 03:42:07;;;;;;;33.72;19.35;;;12.20;84.50;;;;;;5031454;28;20185;-83
2021/12/13 03:44:47;;;;;;;40.40;21.38;;;12.20;84.40;;;;;;5033694;28;20229;-84
2021/12/13 03:47:23;;;;;;;38.53;20.17;;;12.10;84.10;;;;;;5027477;28;20262;-83
2021/12/13 03:49:54;;;;;;;43.15;21.05;;;12.10;84.10;;;;;;5036415;28;20194;-83
2021/12/13 03:52:24;;;;;;;41.20;19.67;;;12.00;83.80;;;;;;5031131;28;20752;-83
2021/12/13 03:54:52;;;;;;;35.53;19.85;;;12.10;84.10;;;;;;5022347;28;20641;-83
2021/12/13 03:57:19;;;;;;;32.30;18.52;;;12.10;84.10;;;;;;5023275;28;20178;-83
2021/12/13 03:59:48;;;;;;;41.85;19.55;;;12.10;84.00;;;;;;5031906;28;20205;-83
2021/12/13 04:02:23;;;;;;;37.03;19.45;;;12.10;84.00;;;;;;5037299;28;20186;-83
2021/12/13 04:04:57;;;;;;;45.80;20.00;;;12.00;83.80;;;;;;5028907;28;20207;-83
2021/12/13 04:07:34;;;;;;;31.77;19.33;;;11.80;83.90;;;;;;5033341;28;20205;-83
2021/12/13 04:10:07;;;;;;;32.00;17.42;;;12.00;84.10;;;;;;5033098;28;20193;-83
2021/12/13 04:12:53;;;;;;;38.25;17.92;;;11.90;84.50;;;;;;5033574;28;20221;-83
2021/12/13 04:16:11;;;;;;;34.80;18.48;;;12.00;84.30;;;;;;5035938;28;20198;-83
2021/12/13 04:21:14;;;;;;;34.85;19.40;;;11.70;83.80;;;;;;5028846;28;20605;-83
2021/12/13 04:23:40;;;;;;;34.13;14.90;;;11.80;84.30;;;;;;5024586;28;20223;-83
2021/12/13 04:26:09;;;;;;;38.30;16.83;;;11.80;84.40;;;;;;5039471;28;20197;-82
2021/12/13 04:28:44;;;;;;;34.20;16.63;;;11.80;84.40;;;;;;5022340;28;20201;-83
2021/12/13 04:31:14;;;;;;;31.92;16.85;;;11.80;84.60;;;;;;5040397;28;20166;-83
2021/12/13 04:33:44;;;;;;;35.65;18.30;;;11.80;84.60;;;;;;5029289;28;20198;-83
2021/12/13 04:36:12;;;;;;;35.85;16.67;;;11.80;84.20;;;;;;5024707;28;20208;-83
2021/12/13 04:38:51;;;;;;;29.60;15.75;;;11.80;84.00;;;;;;5036964;28;20665;-83
2021/12/13 04:41:40;;;;;;;33.30;16.17;;;11.70;84.00;;;;;;5036326;28;20188;-84
2021/12/13 04:44:25;;;;;;;31.80;16.33;;;11.60;84.40;;;;;;5031409;28;20198;-83
2021/12/13 04:46:53;;;;;;;28.73;16.70;;;11.70;84.50;;;;;;5031886;28;20216;-82
2021/12/13 04:49:22;;;;;;;31.15;16.50;;;11.60;84.40;;;;;;5033884;28;20229;-83
2021/12/13 04:52:00;;;;;;;27.92;14.38;;;11.50;84.50;;;;;;5039715;28;20185;-83
2021/12/13 04:54:29;;;;;;;32.70;15.70;;;11.40;84.70;;;;;;5037352;28;20237;-83
2021/12/13 04:56:56;;;;;;;23.48;15.13;;;11.40;85.00;;;;;;5020751;28;20170;-83
2021/12/13 04:59:23;;;;;;;30.80;15.38;;;11.20;84.90;;;;;;5022997;28;20236;-83
2021/12/13 05:01:53;;;;;;;26.65;15.38;;;11.20;85.30;;;;;;5032748;28;20193;-83
2021/12/13 05:04:21;;;;;;;31.35;16.13;;;11.30;85.70;;;;;;5027429;28;20206;-84
2021/12/13 05:06:49;;;;;;;23.88;16.33;;;11.50;85.60;;;;;;5014068;28;20187;-83
2021/12/13 05:09:18;;;;;;;28.17;14.00;;;11.20;85.10;;;;;;5032458;28;20206;-83
2021/12/13 05:11:55;;;;;;;35.35;16.33;;;11.30;85.60;;;;;;5037228;28;20192;-82
2021/12/13 05:14:38;;;;;;;33.05;16.45;;;11.50;85.80;;;;;;5018800;28;20213;-82
2021/12/13 05:17:23;;;;;;;29.65;15.82;;;11.40;85.30;;;;;;5026523;28;20197;-82
2021/12/13 05:19:57;;;;;;;30.48;16.13;;;11.40;85.50;;;;;;5028711;28;20685;-83
2021/12/13 05:22:24;;;;;;;30.75;16.60;;;11.30;85.80;;;;;;5033880;28;20531;-83
2021/12/13 05:24:59;;;;;;;34.25;16.00;;;11.00;86.10;;;;;;5025472;28;20589;-82
2021/12/13 05:27:39;;;;;;;26.73;15.40;;;10.90;86.80;;;;;;5028645;28;20175;-81
2021/12/13 05:30:11;;;;;;;31.73;15.43;;;11.10;87.10;;;;;;5038330;28;20652;-83
2021/12/13 05:32:42;;;;;;;38.38;16.27;;;11.30;87.00;;;;;;5049114;28;20187;-84
2021/12/13 05:35:14;;;;;;;28.95;15.23;;;11.40;86.60;;;;;;5043484;28;20221;-82
2021/12/13 05:37:43;;;;;;;32.17;16.92;;;11.40;86.20;;;;;;5055675;28;20173;-82
2021/12/13 05:40:16;;;;;;;32.33;16.55;;;11.10;86.20;;;;;;5039857;28;20595;-83
2021/12/13 05:42:46;;;;;;;32.33;17.67;;;11.00;86.60;;;;;;5030778;28;20186;-83
2021/12/13 05:45:37;;;;;;;34.50;17.80;;;11.00;86.90;;;;;;5012007;28;20302;-83
2021/12/13 05:48:08;;;;;;;29.23;15.57;;;10.80;87.50;;;;;;5035412;28;20258;-83
2021/12/13 05:50:50;;;;;;;30.25;15.15;;;11.00;88.00;;;;;;5033716;28;20232;-83
2021/12/13 05:53:23;;;;;;;32.67;16.73;;;11.20;87.50;;;;;;5019751;28;20178;-83
2021/12/13 05:55:55;;;;;;;31.30;15.43;;;11.30;87.20;;;;;;5022690;28;20206;-84
2021/12/13 05:58:49;;;;;;;33.47;15.88;;;11.30;86.70;;;;;;5026549;28;20191;-84
2021/12/13 06:01:26;;;;;;;30.52;15.13;;;11.30;86.30;;;;;;5036853;28;20189;-83
2021/12/13 06:04:08;;;;;;;30.83;16.08;;;11.40;86.40;;;;;;5017593;28;20209;-82
2021/12/13 06:06:45;;;;;;;29.10;14.45;;;11.40;86.10;;;;;;5023975;28;20177;-83
2021/12/13 06:09:40;;;;;;;33.72;16.20;;;11.50;86.00;;;;;;5036843;28;20289;-83
2021/12/13 06:12:10;;;;;;;37.13;16.05;;;11.20;85.80;;;;;;5038195;28;20623;-83
2021/12/13 06:14:37;;;;;;;27.05;14.02;;;11.30;86.20;;;;;;5037084;28;20592;-80
2021/12/13 06:17:14;;;;;;;27.02;14.80;;;11.30;86.10;;;;;;5029438;28;20210;-80
2021/12/13 06:19:46;;;;;;;33.20;15.32;;;11.10;86.00;;;;;;5016910;28;20182;-80
2021/12/13 06:22:22;;;;;;;36.80;14.18;;;11.20;86.50;;;;;;5024563;28;20186;-80
2021/12/13 06:25:06;;;;;;;27.60;14.48;;;11.30;86.40;;;;;;5022669;28;20197;-81
2021/12/13 06:27:41;;;;;;;31.05;14.93;;;11.40;86.20;;;;;;5018146;28;20185;-81
2021/12/13 06:30:32;;;;;;;33.47;16.85;;;11.30;85.70;;;;;;5020067;28;20606;-81
2021/12/13 06:33:10;;;;;;;29.75;14.32;;;11.50;86.00;;;;;;5027945;28;20175;-82
2021/12/13 06:35:46;;;;;;;31.10;13.90;;;11.60;85.60;;;;;;5030986;28;20206;-81
2021/12/13 06:38:21;;;;;;;23.63;11.82;;;11.60;85.10;;;;;;5028694;28;20222;-81
2021/12/13 06:40:53;;;;;;;26.92;14.05;;;11.40;84.70;;;;;;5039488;28;20193;-80
2021/12/13 06:43:41;;;;;;;28.05;14.30;;;11.10;85.20;;;;;;5039432;28;20224;-81
2021/12/13 06:46:43;;;;;;;35.58;14.48;;;11.20;85.60;;;;;;5032046;28;20210;-81
2021/12/13 06:49:15;;;;;;;33.63;14.60;;;11.50;85.60;;;;;;5023393;28;20306;-82
2021/12/13 06:51:46;;;;;;;22.85;13.30;;;11.40;85.00;;;;;;5024305;28;20245;-81
2021/12/13 06:54:24;;;;;;;21.95;12.60;;;11.50;85.00;;;;;;5022669;28;20286;-81
2021/12/13 06:56:55;;;;;;;24.83;12.60;;;11.50;85.00;;;;;;5022234;28;20618;-81
2021/12/13 06:59:22;;;;;;;24.30;13.45;;;11.40;84.80;;;;;;5035084;28;20213;-82
2021/12/13 07:02:12;;;;;;;23.90;12.25;;;11.40;84.70;;;;;;5034970;28;20182;-82
2021/12/13 07:05:00;;;;;;;25.83;12.73;;;11.50;84.90;;;;;;5041075;28;20198;-81
2021/12/13 07:07:35;;;;;;;25.48;12.57;;;11.50;84.70;;;;;;5034722;28;20658;-82
2021/12/13 07:10:07;;;;;;;23.08;12.48;;;11.60;84.60;;;;;;5032723;28;20224;-81
2021/12/13 07:12:48;;;;;;;36.08;13.15;;;11.70;84.50;;;;;;5042135;28;20284;-82
2021/12/13 07:15:41;;;;;;;26.73;13.27;;;11.70;84.20;;;;;;5035936;28;20348;-82
2021/12/13 07:18:12;;;;;;;22.40;13.02;;;11.60;83.80;;;;;;5040099;28;20170;-81
2021/12/13 07:20:48;;;;;;;26.00;12.82;;;11.60;83.90;;;;;;5036511;28;20201;-81
2021/12/13 07:23:15;;;;;;;24.27;13.27;;;11.60;84.00;;;;;;5033618;28;20217;-83
2021/12/13 07:25:43;;;;;;;28.58;14.00;;;11.60;84.10;;;;;;5050290;28;20213;-83
2021/12/13 07:28:10;;;;;;;25.27;12.20;;;11.70;84.10;;;;;;5036911;28;20187;-83
2021/12/13 07:30:37;;;;;;;25.38;12.48;;;11.70;84.10;;;;;;5027295;28;20206;-82
2021/12/13 07:33:11;;;;;;;21.63;10.77;;;11.70;84.10;;;;;;5020461;28;20190;-83
2021/12/13 07:35:56;;;;;;;21.17;11.02;;;11.70;84.20;;;;;;5019212;28;20662;-83
2021/12/13 07:38:26;;;;;;;22.90;12.82;;;11.70;85.10;;;;;;5018219;28;20206;-83
2021/12/13 07:40:59;;;;;;;30.65;11.40;;;11.90;85.50;;;;;;5017323;28;20181;-83
2021/12/13 07:43:27;;;;;;;23.02;11.75;;;11.80;85.10;;;;;;5033507;28;20181;-85
2021/12/13 07:45:59;;;;;;;27.77;12.50;;;11.80;85.30;;;;;;5035992;28;20197;-85
2021/12/13 07:48:36;;;;;;;26.98;11.80;;;11.90;85.20;;;;;;5035395;28;20184;-84
2021/12/13 07:51:01;;;;;;;20.83;10.40;;;11.90;84.60;;;;;;5035931;28;20197;-83
2021/12/13 07:53:35;;;;;;;20.33;11.33;;;12.10;84.50;;;;;;5037508;28;20193;-83
2021/12/13 07:56:01;;;;;;;19.05;10.65;;;12.10;84.00;;;;;;5037473;28;20181;-83
2021/12/13 07:58:47;;;;;;;19.53;10.50;;;12.10;83.50;;;;;;5037557;28;20178;-83
2021/12/13 08:01:20;;;;;;;21.40;11.48;;;12.10;83.40;;;;;;5038145;28;20420;-83
2021/12/13 08:03:52;;;;;;;22.23;10.60;;;12.20;83.20;;;;;;5038292;28;20281;-83
2021/12/13 08:06:18;;;;;;;23.80;10.35;;;12.20;82.90;;;;;;5038186;28;20174;-83
2021/12/13 08:08:52;;;;;;;26.45;12.20;;;12.20;82.90;;;;;;5039448;28;20186;-83
2021/12/13 08:11:30;;;;;;;24.23;12.30;;;12.10;82.80;;;;;;5041246;28;20186;-83
2021/12/13 08:13:58;;;;;;;17.95;10.35;;;12.30;82.40;;;;;;5040281;28;20202;-83
2021/12/13 08:16:38;;;;;;;18.58;9.82;;;12.30;82.20;;;;;;5039626;28;20182;-83
2021/12/13 08:19:20;;;;;;;20.55;9.95;;;12.20;81.80;;;;;;5040157;28;20619;-83
2021/12/13 08:21:50;;;;;;;21.20;9.93;;;12.20;82.00;;;;;;4993761;28;1344129;-83
2021/12/13 08:24:22;;;;;;;16.10;9.43;;;12.20;81.80;;;;;;5040988;28;20198;-83
2021/12/13 08:26:54;;;;;;;21.85;9.88;;;12.20;81.80;;;;;;5045393;28;20545;-83
2021/12/13 08:29:27;;;;;;;17.20;9.88;;;12.20;81.70;;;;;;5043891;28;20209;-83
2021/12/13 08:31:54;;;;;;;18.92;9.90;;;12.20;81.60;;;;;;5045861;28;20648;-84
2021/12/13 08:34:34;;;;;;;22.52;9.77;;;12.20;81.70;;;;;;5044050;28;20200;-83
2021/12/13 08:37:10;;;;;;;17.85;10.50;;;12.20;81.60;;;;;;5043369;28;20184;-83
2021/12/13 08:39:38;;;;;;;22.80;10.50;;;12.40;81.60;;;;;;5042677;28;20182;-84
2021/12/13 08:42:19;;;;;;;21.63;9.52;;;12.60;81.00;;;;;;5045227;28;20182;-84
2021/12/13 08:44:57;;;;;;;20.42;9.95;;;12.80;79.70;;;;;;5036774;28;20251;-84
2021/12/13 08:47:32;;;;;;;19.23;9.60;;;12.50;78.60;;;;;;5041742;28;20227;-82
2021/12/13 08:50:04;;;;;;;24.27;10.60;;;12.60;78.80;;;;;;5038093;28;20201;-82
2021/12/13 08:52:37;;;;;;;17.15;8.85;;;12.10;78.70;;;;;;5037796;28;20187;-82
2021/12/13 08:55:12;;;;;;;18.40;9.90;;;12.00;79.70;;;;;;5038789;28;20327;-83
2021/12/13 08:57:47;;;;;;;18.73;9.60;;;11.70;80.40;;;;;;5038799;28;20177;-82
2021/12/13 09:00:12;;;;;;;21.35;11.10;;;11.60;81.00;;;;;;5044046;28;20242;-83
2021/12/13 09:02:42;;;;;;;23.63;10.00;;;11.60;81.30;;;;;;5048756;28;20194;-83
2021/12/13 09:05:14;;;;;;;14.68;9.23;;;11.60;81.30;;;;;;5048317;28;20201;-82
2021/12/13 09:08:03;;;;;;;14.45;8.55;;;11.60;81.50;;;;;;5049294;28;20273;-82
2021/12/13 09:10:47;;;;;;;17.10;8.98;;;11.60;81.80;;;;;;5032354;28;20202;-82
2021/12/13 09:13:15;;;;;;;17.20;9.15;;;11.90;81.90;;;;;;5048902;28;20190;-83
2021/12/13 09:15:43;;;;;;;18.75;9.88;;;11.90;81.20;;;;;;5025601;28;20210;-82
2021/12/13 09:18:16;;;;;;;17.65;9.15;;;11.80;81.50;;;;;;5037804;28;20182;-82
2021/12/13 09:20:47;;;;;;;17.15;8.02;;;11.70;80.80;;;;;;5037622;28;20190;-82
2021/12/13 09:23:25;;;;;;;15.65;8.55;;;11.60;81.10;;;;;;5036174;28;20293;-83
2021/12/13 09:26:05;;;;;;;12.95;9.23;;;11.60;81.30;;;;;;5021071;28;20201;-82
2021/12/13 09:28:56;;;;;;;18.27;9.63;;;11.70;81.60;;;;;;5035913;28;20523;-82
2021/12/13 09:31:33;;;;;;;12.93;7.63;;;11.70;81.20;;;;;;5021722;28;20608;-82
2021/12/13 09:34:10;;;;;;;16.25;7.88;;;11.70;81.30;;;;;;5040153;28;20198;-83
2021/12/13 09:36:39;;;;;;;16.98;9.35;;;11.80;81.30;;;;;;5025908;28;20178;-83
2021/12/13 09:39:17;;;;;;;19.63;7.53;;;11.90;81.10;;;;;;5028460;28;20186;-83
2021/12/13 09:41:42;;;;;;;14.90;7.85;;;12.00;80.70;;;;;;5045199;28;20234;-81
2021/12/13 09:44:08;;;;;;;18.03;8.50;;;12.00;80.50;;;;;;5042803;28;20202;-83
2021/12/13 09:46:39;;;;;;;21.60;8.17;;;12.10;80.20;;;;;;5042313;28;20182;-82
2021/12/13 09:49:26;;;;;;;13.25;7.88;;;12.10;80.00;;;;;;5042423;28;20182;-83
2021/12/13 09:52:06;;;;;;;14.52;7.95;;;12.00;79.60;;;;;;5043427;28;20170;-82
2021/12/13 09:54:42;;;;;;;15.13;8.48;;;12.30;80.00;;;;;;5044919;28;20194;-83
2021/12/13 09:57:21;;;;;;;21.60;8.70;;;12.20;79.40;;;;;;5046350;28;20280;-82
2021/12/13 09:59:52;;;;;;;12.35;7.32;;;12.10;79.20;;;;;;5044337;28;20182;-83
2021/12/13 10:02:40;;;;;;;20.00;8.63;;;12.10;79.30;;;;;;5041071;28;20224;-82
2021/12/13 10:05:12;;;;;;;15.85;8.60;;;12.00;79.10;;;;;;5041621;28;20202;-83
2021/12/13 10:07:41;;;;;;;13.38;7.70;;;12.00;79.10;;;;;;5031546;28;20206;-82
2021/12/13 10:10:16;;;;;;;13.77;10.07;;;12.00;79.20;;;;;;5025076;28;20202;-83
2021/12/13 10:12:56;;;;;;;15.23;9.20;;;12.20;79.50;;;;;;5028209;28;20634;-82
2021/12/13 10:15:30;;;;;;;10.50;6.72;;;12.20;79.10;;;;;;5053450;28;20186;-83
2021/12/13 10:18:00;;;;;;;14.65;8.77;;;12.10;79.10;;;;;;5057560;28;20165;-82
2021/12/13 10:20:40;;;;;;;12.75;7.15;;;11.80;79.00;;;;;;5056732;28;20248;-80
2021/12/13 10:23:10;;;;;;;16.55;10.07;;;12.00;79.50;;;;;;5054734;28;20588;-83
2021/12/13 10:25:40;;;;;;;13.93;6.95;;;12.10;79.60;;;;;;5054145;28;20233;-83
2021/12/13 10:28:10;;;;;;;12.70;7.07;;;12.30;79.00;;;;;;5048903;28;20178;-82
2021/12/13 10:30:41;;;;;;;14.20;8.65;;;12.30;78.80;;;;;;5046191;28;20205;-82
2021/12/13 10:33:08;;;;;;;12.88;7.35;;;12.30;78.80;;;;;;5044015;28;20197;-83
2021/12/13 10:35:38;;;;;;;14.38;7.95;;;12.40;78.50;;;;;;5048206;28;20236;-82
2021/12/13 10:38:11;;;;;;;21.10;6.75;;;12.40;78.20;;;;;;5047473;28;20182;-82
2021/12/13 10:41:03;;;;;;;10.48;6.82;;;12.50;77.90;;;;;;5045027;28;20213;-82
2021/12/13 10:43:43;;;;;;;13.65;7.13;;;12.50;78.10;;;;;;5046193;28;20174;-82
2021/12/13 10:46:20;;;;;;;11.98;6.68;;;12.60;78.40;;;;;;5047577;28;20205;-82
2021/12/13 10:48:51;;;;;;;17.50;7.45;;;12.70;78.00;;;;;;5050584;28;20181;-82
2021/12/13 10:51:28;;;;;;;13.90;7.50;;;12.70;77.10;;;;;;5046626;28;20645;-82
2021/12/13 10:53:59;;;;;;;12.48;7.35;;;12.80;76.60;;;;;;5039538;28;20193;-84
2021/12/13 10:56:40;;;;;;;10.65;6.43;;;12.70;76.20;;;;;;5042692;28;20178;-82
2021/12/13 10:59:10;;;;;;;16.20;7.72;;;12.70;76.20;;;;;;5052135;28;20174;-84
2021/12/13 11:01:41;;;;;;;15.63;7.05;;;12.60;76.20;;;;;;5056004;28;20163;-84
2021/12/13 11:04:14;;;;;;;10.20;6.50;;;12.60;76.30;;;;;;5053686;28;20213;-83
2021/12/13 11:06:42;;;;;;;12.10;5.95;;;12.40;76.20;;;;;;5046579;28;20269;-84
2021/12/13 11:09:11;;;;;;;9.77;7.15;;;12.50;76.80;;;;;;5040084;28;20158;-84
2021/12/13 11:11:47;;;;;;;9.32;6.68;;;12.50;76.90;;;;;;5038051;28;20174;-84
2021/12/13 11:14:17;;;;;;;11.85;7.22;;;12.40;76.30;;;;;;5037279;28;20235;-84
2021/12/13 11:16:47;;;;;;;12.63;6.88;;;12.40;76.70;;;;;;5042671;28;20170;-85
2021/12/13 11:19:18;;;;;;;13.82;7.65;;;12.50;77.00;;;;;;5042914;28;20242;-82
2021/12/13 11:21:48;;;;;;;10.48;6.43;;;12.50;77.30;;;;;;5043960;28;20202;-82
2021/12/13 11:24:19;;;;;;;7.25;6.32;;;12.50;77.70;;;;;;5042529;28;20689;-83
2021/12/13 11:26:48;;;;;;;10.80;7.43;;;12.70;77.60;;;;;;5041416;28;20525;-83
2021/12/13 11:29:15;;;;;;;13.20;6.35;;;12.70;76.50;;;;;;5040015;28;20197;-82
2021/12/13 11:31:52;;;;;;;11.98;7.13;;;12.80;76.30;;;;;;5025353;28;20569;-84
2021/12/13 11:34:56;;;;;;;11.00;6.90;;;12.60;75.70;;;;;;5046610;28;20252;-84
2021/12/13 11:37:43;;;;;;;10.63;6.78;;;12.70;75.80;;;;;;5041580;28;20277;-84
2021/12/13 11:40:26;;;;;;;15.38;8.02;;;12.80;75.40;;;;;;5029013;28;20190;-83
2021/12/13 11:43:27;;;;;;;13.30;7.57;;;12.80;75.20;;;;;;5028990;28;20666;-81
2021/12/13 11:46:30;;;;;;;11.63;6.32;;;12.70;75.20;;;;;;5024531;28;20212;-81
2021/12/13 11:49:23;;;;;;;11.48;8.07;;;12.70;75.30;;;;;;5021034;28;20220;-82
2021/12/13 11:52:12;;;;;;;13.57;7.05;;;12.70;75.60;;;;;;5019540;28;20198;-82
2021/12/13 11:55:05;;;;;;;10.43;7.32;;;12.80;75.50;;;;;;5036507;28;20289;-84
2021/12/13 11:58:09;;;;;;;14.60;7.00;;;12.70;75.40;;;;;;5028285;28;20178;-83
2021/12/13 12:01:12;;;;;;;9.68;6.28;;;12.70;75.30;;;;;;5033205;28;20194;-83
2021/12/13 12:04:05;;;;;;;12.60;5.60;;;12.70;75.40;;;;;;5027884;28;20189;-83
2021/12/13 12:06:53;;;;;;;10.68;6.25;;;12.70;76.10;;;;;;5028716;28;20255;-83
2021/12/13 12:10:00;;;;;;;9.52;6.70;;;12.80;76.20;;;;;;5020452;28;20190;-83
2021/12/13 12:12:43;;;;;;;11.73;6.97;;;12.90;75.60;;;;;;5025626;28;20204;-83
2021/12/13 12:15:09;;;;;;;13.40;6.88;;;12.90;75.60;;;;;;5026218;28;20622;-84
2021/12/13 12:17:36;;;;;;;13.70;6.53;;;13.00;75.30;;;;;;5018467;28;20554;-86
2021/12/13 12:20:06;;;;;;;16.42;7.95;;;12.90;75.50;;;;;;5038345;28;20207;-83
2021/12/13 12:22:57;;;;;;;16.27;6.72;;;13.00;75.20;;;;;;5044497;28;20185;-83
2021/12/13 12:25:26;;;;;;;15.43;7.00;;;12.90;75.50;;;;;;5022115;28;20202;-85
2021/12/13 12:27:57;;;;;;;13.25;6.28;;;13.10;75.00;;;;;;5026724;28;20197;-83
2021/12/13 12:30:32;;;;;;;13.50;8.10;;;13.10;74.60;;;;;;5018598;28;20230;-83
2021/12/13 12:33:06;;;;;;;9.75;6.18;;;12.80;74.20;;;;;;5043640;28;20174;-84
2021/12/13 12:35:34;;;;;;;11.63;5.78;;;12.80;74.40;;;;;;5031960;28;20306;-83
2021/12/13 12:38:48;;;;;;;8.95;5.70;;;12.60;74.90;;;;;;5024879;28;20258;-84
2021/12/13 12:41:13;;;;;;;13.07;7.28;;;12.70;75.50;;;;;;5027977;28;20198;-84
2021/12/13 12:43:50;;;;;;;11.80;6.60;;;12.70;75.40;;;;;;5036734;28;20185;-81
2021/12/13 12:46:16;;;;;;;11.80;6.65;;;12.80;75.50;;;;;;5018750;28;20201;-83
2021/12/13 12:48:52;;;;;;;16.80;7.18;;;12.90;75.40;;;;;;5039007;28;20233;-83
2021/12/13 12:51:19;;;;;;;16.92;7.28;;;12.70;75.00;;;;;;5044357;28;20219;-82
2021/12/13 12:54:09;;;;;;;14.73;7.10;;;12.70;75.40;;;;;;5028055;28;20677;-83
2021/12/13 12:56:37;;;;;;;14.68;7.97;;;12.80;75.20;;;;;;5021987;28;20182;-82
2021/12/13 12:59:09;;;;;;;13.57;6.50;;;12.80;75.30;;;;;;5030479;28;20184;-82
2021/12/13 13:01:40;;;;;;;15.48;7.15;;;12.90;75.60;;;;;;5047482;28;20335;-83
2021/12/13 13:04:17;;;;;;;9.48;6.32;;;12.70;74.70;;;;;;5029955;28;20210;-81
2021/12/13 13:07:06;;;;;;;12.20;7.32;;;12.80;74.70;;;;;;5030473;28;20173;-82
2021/12/13 13:09:49;;;;;;;12.45;6.60;;;12.80;74.70;;;;;;5043483;28;20204;-84
2021/12/13 13:12:25;;;;;;;17.05;6.90;;;12.80;74.40;;;;;;5019090;28;20171;-82
2021/12/13 13:15:07;;;;;;;15.15;7.40;;;12.80;74.40;;;;;;5035213;28;20204;-83
2021/12/13 13:17:34;;;;;;;13.77;7.00;;;12.80;74.50;;;;;;5032167;28;20170;-82
2021/12/13 13:20:28;;;;;;;11.32;7.70;;;12.80;74.50;;;;;;5034447;28;20284;-82
2021/12/13 13:22:55;;;;;;;18.88;7.93;;;12.80;74.80;;;;;;5059062;28;20194;-82
2021/12/13 13:25:32;;;;;;;14.98;8.32;;;12.90;74.50;;;;;;5050085;28;20292;-82